• Join FlightAware (Why Join?)
  • Login
  • US Flag 
01:52AM EDT


 

Airport Tracker/Info


-or-


 

Live Flight TrackerFlight Track Log ✈ ASQ5745 ✈ 18-May-2013 ✈ KIAD - KALB

Flight Track Log - Related Links

Times and Time Zones

All times are in EDT time to prevent confusion due to time zone crossing. See the ASQ5745 flight status page for this flight to view local times or setup timezone preferences in your user account.

Time Position Orientation Groundspeed Altitude Reporting Facility
EDT Latitude Longitude Course Direction KTS MPH feet Rate Location/Type
08:28AM 38.9500 -77.5333 North 180 207 2,400  Level Potomac TRACON
08:29AM 38.9833 -77.6000 303° West 261 300 4,800 2,760 Climbing Potomac TRACON
08:30AM 39.2193 -77.4500 North  Level FlightAware Approximate
08:30AM 39.0500 -77.6603 325° Northwest 269 310 8,300  Level Washington Center
08:31AM 39.3146 -77.4500 North  Level FlightAware Approximate
08:31AM 39.1183 -77.6836 345° North 269 310 10,700  Level Washington Center
08:32AM 39.4099 -77.4500 North  Level FlightAware Approximate
08:32AM 39.2078 -77.6836 360° North 289 333 12,100  Level Washington Center
08:33AM 39.5052 -77.4500 North  Level FlightAware Approximate
08:33AM 39.3022 -77.6542 14° North 317 365 14,200  Level Washington Center
08:34AM 39.3928 -77.6003 25° Northeast 332 382 16,300 1,620 Climbing Washington Center
08:36AM 39.5864 -77.4872 24° Northeast 381 438 19,100 1,380 Climbing New York Center
08:37AM 39.6886 -77.4536 14° North 376 433 20,400 1,200 Climbing New York Center
08:38AM 39.7972 -77.4506 North 376 433 21,500 1,080 Climbing New York Center
08:39AM 39.9019 -77.4036 19° North 376 433 22,600 1,140 Climbing New York Center
08:40AM 40.0075 -77.3458 23° Northeast 388 447 23,800 1,140 Climbing New York Center
08:41AM 40.1106 -77.2906 22° Northeast 398 458 24,900 900 Climbing New York Center
08:42AM 40.2050 -77.2397 22° Northeast 404 465 25,600 660 Climbing New York Center
08:43AM 40.3125 -77.1814 22° Northeast 404 465 26,300 660 Climbing New York Center
08:44AM 40.4222 -77.1208 23° Northeast 404 465 27,000 660 Climbing New York Center
08:45AM 40.5336 -77.0600 23° Northeast 416 479 27,700 660 Climbing New York Center
08:46AM 40.6453 -76.9992 22° Northeast 421 484 28,400 600 Climbing New York Center
08:47AM 40.7550 -76.9378 23° Northeast 421 484 29,000 240 Climbing New York Center
08:48AM 40.8667 -76.8739 23° Northeast 428 493 29,000  Level New York Center
08:49AM 40.9803 -76.8097 23° Northeast 433 498 29,000  Level New York Center
08:50AM 41.0981 -76.7458 22° Northeast 433 498 29,000  Level New York Center
08:51AM 41.2139 -76.6789 23° Northeast 439 505 29,000  Level New York Center
08:52AM 41.3297 -76.6144 23° Northeast 445 512 29,000  Level New York Center
08:53AM 41.4600 -76.5456 22° Northeast 445 512 29,000  Level New York Center
08:54AM 41.5761 -76.4750 24° Northeast 445 512 29,000  Level New York Center
08:55AM 41.6917 -76.4072 24° Northeast 445 512 29,000 -720 Level New York Center
08:57AM 41.9675 -76.2492 23° Northeast 461 531 26,700 -1,140 Descending Boston Center
08:58AM 42.0800 -76.1831 24° Northeast 448 516 25,100 -1,380 Descending Boston Center
08:59AM 42.1772 -76.0853 37° Northeast 438 504 24,000 -600 Descending Boston Center
09:00AM 42.2322 -75.9258 65° Northeast 430 495 24,000  Level Boston Center
09:01AM 42.2936 -75.7522 64° Northeast 453 521 24,000  Level Boston Center
09:02AM 42.3381 -75.5806 71° East 463 533 24,000 -540 Level Boston Center
09:03AM 42.3803 -75.4083 72° East 468 539 23,000 -1,620 Descending Boston Center
09:04AM 42.4181 -75.2356 73° East 474 545 20,800 -2,220 Descending Boston Center
09:05AM 42.4594 -75.0800 70° East 469 540 18,600 -2,040 Descending Boston Center
09:06AM 42.4942 -74.9208 73° East 452 520 16,800 -1,980 Descending Boston Center
09:07AM 42.5267 -74.7700 74° East 431 496 14,700 -2,220 Descending Boston Center
09:08AM 42.5494 -74.6750 72° East 400 460 13,100 -2,400 Descending Boston Center
09:08AM 42.5608 -74.6247 73° East 400 460 12,300 -2,040 Descending Boston Center
09:09AM 42.5831 -74.5381 71° East 385 443 11,100 -1,200 Descending Boston Center
09:09AM 42.5903 -74.4903 78° East 384 442 11,100 -360 Level Boston Center
09:10AM 42.6081 -74.4233 70° East 330 380 10,800 -1,140 Descending Boston Center
09:10AM 42.6133 -74.3725 82° East 331 381 10,000 -1,800 Descending Boston Center
09:11AM 42.6186 -74.3078 84° East 291 335 9,000 -1,620 Descending Boston Center
09:11AM 42.6233 -74.2600 82° East 309 356 8,400 -1,620 Descending Boston Center
09:12AM 42.6306 -74.1983 81° East 296 341 7,400 -1,740 Descending Boston Center
09:12AM 42.6314 -74.1558 88° East 286 329 6,700 -1,920 Descending Boston Center
09:13AM 42.6364 -74.0883 84° East 270 311 5,500 -1,620 Descending Boston Center
09:13AM 42.6389 -74.0658 81° East 273 314 5,100 -1,920 Descending Boston Center
09:14AM 42.6419 -73.9897 87° East 264 304 3,600 -1,800 Descending Boston Center
09:14AM 42.6464 -73.9672 75° East 268 308 3,300 -1,020 Descending Boston Center
09:15AM 42.6536 -73.8997 82° East 235 270 2,600 -780 Descending Boston Center
09:16AM 42.6669 -73.8322 75° East 166 191 2,000 -600 Descending Boston Center